Time;durP1;ratioP1;P1;durP2;ratioP2;P2;SDS_P1;SDS_P2;PMS_P1;PMS_P2;Temp;Humidity;BMP_temperature;BMP_pressure;BME280_temperature;BME280_humidity;BME280_pressure;Samples;Min_cycle;Max_cycle;Signal;HPM_P1;HPM_P2
2023/10/15 00:00:19;;;;;;;;;;;7.90;88.20;;;;;;5081132;28;19908;-57
2023/10/15 00:02:46;;;;;;;;;;;7.90;88.70;;;;;;5080756;28;19958;-55
2023/10/15 00:05:15;;;;;;;;;;;8.10;89.10;;;;;;5064739;28;19916;-54
2023/10/15 00:07:41;;;;;;;;;;;8.10;89.20;;;;;;5087329;28;19908;-51
2023/10/15 00:10:12;;;;;;;;;;;8.10;89.20;;;;;;5047681;28;19908;-53
2023/10/15 00:12:38;;;;;;;;;;;8.10;89.30;;;;;;5056107;28;19947;-53
2023/10/15 00:15:25;;;;;;;;;;;8.20;89.50;;;;;;5080878;28;19912;-55
2023/10/15 00:17:53;;;;;;;;;;;8.10;89.10;;;;;;5065350;28;19923;-52
2023/10/15 00:20:20;;;;;;;;;;;8.00;88.80;;;;;;5063602;28;20424;-51
2023/10/15 00:22:47;;;;;;;;;;;8.00;88.60;;;;;;5045123;28;19952;-50
2023/10/15 00:25:19;;;;;;;;;;;8.00;87.80;;;;;;5064936;28;19912;-50
2023/10/15 00:27:59;;;;;;;;;;;7.90;86.90;;;;;;5085254;28;20195;-54
2023/10/15 00:30:31;;;;;;;;;;;7.90;86.80;;;;;;5086344;28;19912;-53
2023/10/15 00:32:59;;;;;;;;;;;7.90;87.20;;;;;;5084092;28;20358;-48
2023/10/15 00:35:27;;;;;;;;;;;7.90;87.50;;;;;;5069122;28;19969;-49
2023/10/15 00:40:19;;;;;;;;;;;7.70;87.10;;;;;;5088277;28;19917;-49
2023/10/15 00:42:46;;;;;;;;;;;7.70;87.30;;;;;;5065109;28;19916;-51
2023/10/15 00:45:14;;;;;;;;;;;7.80;86.90;;;;;;5069251;28;19912;-48
2023/10/15 00:47:43;;;;;;;;;;;7.90;86.80;;;;;;5083636;28;19912;-50
2023/10/15 00:50:11;;;;;;;;;;;7.90;87.20;;;;;;5087409;27;19912;-48
2023/10/15 00:52:42;;;;;;;;;;;8.00;87.60;;;;;;5109546;27;19975;-48
2023/10/15 00:55:22;;;;;;;;;;;8.00;88.00;;;;;;5108421;27;19914;-49
2023/10/15 00:57:55;;;;;;;;;;;8.00;87.70;;;;;;5104695;27;20005;-48
2023/10/15 01:00:48;;;;;;;;;;;8.10;87.30;;;;;;5109692;27;20276;-47
2023/10/15 01:03:17;;;;;;;;;;;8.10;87.50;;;;;;5110289;27;19907;-49
2023/10/15 01:05:53;;;;;;;;;;;8.20;87.60;;;;;;5115163;27;19915;-47
2023/10/15 01:08:35;;;;;;;;;;;8.20;88.00;;;;;;5110201;27;19969;-50
2023/10/15 01:11:12;;;;;;;;;;;8.20;88.00;;;;;;5116418;27;19995;-48
2023/10/15 01:13:42;;;;;;;;;;;8.20;88.20;;;;;;5100533;27;20726;-48
2023/10/15 01:16:10;;;;;;;;;;;8.10;88.10;;;;;;5114638;27;19922;-49
2023/10/15 01:18:36;;;;;;;;;;;8.10;87.90;;;;;;5104279;27;20010;-48
2023/10/15 01:21:14;;;;;;;;;;;8.00;88.00;;;;;;5105041;27;19990;-47
2023/10/15 01:26:23;;;;;;;;;;;7.80;87.30;;;;;;5114123;27;19916;-51
2023/10/15 01:28:59;;;;;;;;;;;7.70;87.40;;;;;;5117690;27;19972;-47
2023/10/15 01:31:24;;;;;;;;;;;7.70;87.40;;;;;;5114986;27;19912;-49
2023/10/15 01:33:50;;;;;;;;;;;7.70;87.50;;;;;;5113193;27;19907;-49
2023/10/15 01:36:30;;;;;;;;;;;7.70;88.10;;;;;;5115752;27;19912;-47
2023/10/15 01:38:58;;;;;;;;;;;7.70;88.10;;;;;;5118177;27;19908;-47
2023/10/15 01:41:27;;;;;;;;;;;7.60;87.80;;;;;;5099704;28;19912;-47
2023/10/15 01:43:59;;;;;;;;;;;7.50;87.90;;;;;;5093606;28;19996;-49
2023/10/15 01:47:10;;;;;;;;;;;7.50;88.00;;;;;;5116378;27;19907;-49
2023/10/15 01:49:18;;;;;;;;;;;7.40;88.00;;;;;;5104226;28;19911;-47
2023/10/15 01:51:46;;;;;;;;;;;7.40;88.10;;;;;;5108641;28;20007;-50
2023/10/15 01:54:13;;;;;;;;;;;7.40;87.80;;;;;;5075044;28;20227;-47
2023/10/15 01:56:44;;;;;;;;;;;7.30;88.20;;;;;;5076644;28;19908;-48
2023/10/15 01:59:11;;;;;;;;;;;7.30;88.30;;;;;;5095503;28;19919;-48
2023/10/15 02:01:41;;;;;;;;;;;7.30;88.40;;;;;;5081818;28;19908;-47
2023/10/15 02:04:12;;;;;;;;;;;7.20;88.60;;;;;;5079504;28;20007;-47
2023/10/15 02:06:43;;;;;;;;;;;7.20;88.70;;;;;;5079758;28;19908;-47
2023/10/15 02:09:22;;;;;;;;;;;7.30;89.10;;;;;;5074763;28;19912;-50
2023/10/15 02:11:54;;;;;;;;;;;7.30;88.80;;;;;;5074292;28;20295;-47
2023/10/15 02:14:29;;;;;;;;;;;7.20;88.60;;;;;;5082324;28;19957;-47
2023/10/15 02:16:57;;;;;;;;;;;7.20;89.00;;;;;;5095181;28;19904;-48
2023/10/15 02:19:40;;;;;;;;;;;7.30;89.00;;;;;;5075732;28;19940;-47
2023/10/15 02:22:07;;;;;;;;;;;7.30;89.40;;;;;;5074271;28;19915;-47
2023/10/15 02:24:34;;;;;;;;;;;7.40;89.50;;;;;;5074109;28;19909;-48
2023/10/15 02:27:06;;;;;;;;;;;7.40;89.60;;;;;;5056794;28;19919;-46
2023/10/15 02:29:41;;;;;;;;;;;7.40;89.60;;;;;;5073907;28;19965;-47
2023/10/15 02:32:20;;;;;;;;;;;7.30;89.50;;;;;;5088652;28;19915;-47
2023/10/15 02:34:50;;;;;;;;;;;7.40;89.70;;;;;;5076767;28;20402;-48
2023/10/15 02:37:18;;;;;;;;;;;7.40;89.60;;;;;;5094390;28;19998;-46
2023/10/15 02:39:50;;;;;;;;;;;7.40;89.50;;;;;;5088006;28;19911;-46
2023/10/15 02:42:30;;;;;;;;;;;7.40;88.90;;;;;;5081327;28;19938;-47
2023/10/15 02:44:58;;;;;;;;;;;7.40;88.30;;;;;;5074222;28;20277;-50
2023/10/15 02:50:15;;;;;;;;;;;7.50;88.30;;;;;;5099117;28;20049;-50
2023/10/15 02:52:43;;;;;;;;;;;7.60;88.60;;;;;;5080415;28;20264;-49
2023/10/15 02:55:11;;;;;;;;;;;7.60;88.90;;;;;;5073689;28;19955;-49
2023/10/15 02:57:40;;;;;;;;;;;7.50;89.00;;;;;;5056373;28;19912;-48
2023/10/15 03:00:14;;;;;;;;;;;7.50;88.80;;;;;;5073700;28;19912;-48
2023/10/15 03:02:49;;;;;;;;;;;7.50;88.90;;;;;;5076703;28;20361;-52
2023/10/15 03:05:25;;;;;;;;;;;7.50;88.90;;;;;;5102511;28;20502;-47
2023/10/15 03:07:59;;;;;;;;;;;7.40;88.80;;;;;;5094113;28;19919;-48
2023/10/15 03:13:14;;;;;;;;;;;7.40;88.70;;;;;;5081840;28;19965;-48
2023/10/15 03:15:50;;;;;;;;;;;7.30;88.90;;;;;;5090677;28;20308;-49
2023/10/15 03:18:21;;;;;;;;;;;7.30;88.80;;;;;;5075283;28;19916;-48
2023/10/15 03:20:50;;;;;;;;;;;7.20;88.70;;;;;;5076988;28;19908;-47
2023/10/15 03:23:18;;;;;;;;;;;7.20;88.70;;;;;;5094294;28;19960;-49
2023/10/15 03:25:57;;;;;;;;;;;7.20;88.70;;;;;;5093838;28;20002;-47
2023/10/15 03:28:24;;;;;;;;;;;7.10;88.80;;;;;;5056519;28;20349;-47
2023/10/15 03:31:00;;;;;;;;;;;7.20;88.90;;;;;;5062121;28;19969;-48
2023/10/15 03:33:39;;;;;;;;;;;7.10;88.70;;;;;;5088417;28;20002;-49
2023/10/15 03:36:12;;;;;;;;;;;7.10;88.30;;;;;;5093200;28;20002;-47
2023/10/15 03:38:39;;;;;;;;;;;7.00;88.20;;;;;;5062863;28;19961;-47
2023/10/15 03:41:21;;;;;;;;;;;7.00;88.00;;;;;;5093546;28;20181;-47
2023/10/15 03:43:51;;;;;;;;;;;7.00;88.30;;;;;;5093470;28;19908;-47
2023/10/15 03:46:19;;;;;;;;;;;7.00;88.50;;;;;;5090893;28;19916;-54
2023/10/15 03:48:49;;;;;;;;;;;7.00;88.90;;;;;;5085715;28;19923;-56
2023/10/15 03:51:24;;;;;;;;;;;7.00;89.20;;;;;;5088336;28;19919;-53
2023/10/15 03:53:51;;;;;;;;;;;7.10;89.40;;;;;;5104245;28;19915;-50
2023/10/15 03:56:18;;;;;;;;;;;7.10;89.80;;;;;;5109088;28;19964;-54
2023/10/15 03:58:45;;;;;;;;;;;7.00;90.10;;;;;;5112904;28;19934;-50
2023/10/15 04:01:16;;;;;;;;;;;7.00;90.40;;;;;;5095181;28;19919;-49
2023/10/15 04:03:43;;;;;;;;;;;7.10;90.50;;;;;;5100022;28;19916;-51
2023/10/15 04:06:10;;;;;;;;;;;7.10;90.40;;;;;;5105978;28;19915;-52
2023/10/15 04:11:41;;;;;;;;;;;7.20;90.40;;;;;;5111438;28;19930;-53
2023/10/15 04:14:13;;;;;;;;;;;7.10;90.40;;;;;;5107034;28;19968;-50
2023/10/15 04:16:46;;;;;;;;;;;7.20;90.90;;;;;;5090612;28;19908;-49
2023/10/15 04:19:25;;;;;;;;;;;7.20;90.80;;;;;;5093485;28;19904;-49
2023/10/15 04:24:42;;;;;;;;;;;7.20;91.00;;;;;;5102592;28;19962;-54
2023/10/15 04:27:30;;;;;;;;;;;7.30;91.20;;;;;;5102110;28;19907;-50
2023/10/15 04:30:00;;;;;;;;;;;7.30;91.20;;;;;;5113041;28;20378;-51
2023/10/15 04:32:45;;;;;;;;;;;7.40;91.10;;;;;;5109124;28;20278;-49
2023/10/15 04:35:25;;;;;;;;;;;7.40;90.90;;;;;;5112632;28;19911;-50
2023/10/15 04:37:58;;;;;;;;;;;7.40;90.90;;;;;;5080151;28;19912;-51
2023/10/15 04:40:23;;;;;;;;;;;7.30;90.80;;;;;;5092865;28;20313;-51
2023/10/15 04:42:50;;;;;;;;;;;7.40;91.10;;;;;;5093000;28;19904;-52
2023/10/15 04:45:40;;;;;;;;;;;7.40;90.90;;;;;;5076213;28;19911;-50
2023/10/15 04:48:26;;;;;;;;;;;7.40;90.60;;;;;;5107727;28;19994;-54
2023/10/15 04:50:54;;;;;;;;;;;7.30;90.80;;;;;;5113100;28;19912;-53
2023/10/15 04:55:51;;;;;;;;;;;7.30;90.60;;;;;;5110070;28;19912;-49
2023/10/15 04:58:17;;;;;;;;;;;7.30;90.70;;;;;;5095401;28;19915;-49
2023/10/15 05:00:48;;;;;;;;;;;7.30;90.70;;;;;;5112403;28;20276;-48
2023/10/15 05:03:17;;;;;;;;;;;7.30;90.70;;;;;;5099492;28;20353;-51
2023/10/15 05:05:46;;;;;;;;;;;7.30;90.80;;;;;;5110308;28;19931;-49
2023/10/15 05:08:12;;;;;;;;;;;7.20;90.80;;;;;;5112185;28;19911;-50
2023/10/15 05:10:50;;;;;;;;;;;7.20;90.70;;;;;;5091188;28;19920;-49
2023/10/15 05:13:17;;;;;;;;;;;7.20;90.70;;;;;;5115038;28;20003;-50
2023/10/15 05:15:51;;;;;;;;;;;7.10;90.50;;;;;;5114205;28;20329;-50
2023/10/15 05:18:19;;;;;;;;;;;7.10;90.30;;;;;;5113445;28;19908;-48
2023/10/15 05:20:48;;;;;;;;;;;7.00;90.30;;;;;;5116436;27;19907;-48
2023/10/15 05:23:16;;;;;;;;;;;6.90;90.20;;;;;;5115713;28;19904;-48
2023/10/15 05:25:42;;;;;;;;;;;7.00;90.40;;;;;;5095928;28;19912;-49
2023/10/15 05:28:13;;;;;;;;;;;6.90;90.30;;;;;;5110574;28;19937;-50
2023/10/15 05:30:41;;;;;;;;;;;6.90;90.50;;;;;;5100897;28;20364;-48
2023/10/15 05:33:07;;;;;;;;;;;6.90;90.20;;;;;;5114583;28;20308;-48
2023/10/15 05:35:37;;;;;;;;;;;6.90;90.00;;;;;;5086958;28;19908;-52
2023/10/15 05:38:08;;;;;;;;;;;6.80;90.00;;;;;;5115302;28;20244;-48
2023/10/15 05:40:36;;;;;;;;;;;6.70;89.90;;;;;;5116136;28;19912;-47
2023/10/15 05:43:02;;;;;;;;;;;6.70;90.10;;;;;;5110267;28;19911;-47
2023/10/15 05:45:31;;;;;;;;;;;6.70;90.10;;;;;;5114469;28;19907;-50
2023/10/15 05:47:58;;;;;;;;;;;6.60;90.10;;;;;;5105517;28;19977;-55
2023/10/15 05:50:26;;;;;;;;;;;6.60;90.30;;;;;;5096411;28;19908;-49
2023/10/15 05:52:52;;;;;;;;;;;6.70;90.50;;;;;;5114551;28;19966;-50
2023/10/15 05:55:19;;;;;;;;;;;6.70;90.60;;;;;;5115141;28;19965;-50
2023/10/15 05:57:46;;;;;;;;;;;6.70;91.00;;;;;;5115072;28;19912;-53
2023/10/15 06:00:26;;;;;;;;;;;6.80;91.10;;;;;;5098696;27;19918;-52
2023/10/15 06:02:56;;;;;;;;;;;6.80;91.10;;;;;;5100350;27;19950;-54
2023/10/15 06:05:21;;;;;;;;;;;6.80;91.10;;;;;;5097005;28;19916;-55
2023/10/15 06:07:48;;;;;;;;;;;6.80;91.20;;;;;;5097775;28;20403;-51
2023/10/15 06:10:15;;;;;;;;;;;6.80;91.10;;;;;;5114332;27;19915;-49
2023/10/15 06:12:41;;;;;;;;;;;6.70;91.20;;;;;;5080160;28;20221;-52
2023/10/15 06:15:15;;;;;;;;;;;6.70;91.30;;;;;;5113777;28;19918;-52
2023/10/15 06:17:42;;;;;;;;;;;6.70;91.60;;;;;;5114873;28;19907;-50
2023/10/15 06:20:16;;;;;;;;;;;6.80;91.60;;;;;;5116038;27;19911;-50
2023/10/15 06:22:42;;;;;;;;;;;6.80;91.70;;;;;;5104849;27;19908;-52
2023/10/15 06:25:11;;;;;;;;;;;6.80;91.60;;;;;;5076951;28;19904;-51
2023/10/15 06:27:40;;;;;;;;;;;6.90;91.60;;;;;;5095754;27;19908;-52
2023/10/15 06:30:19;;;;;;;;;;;6.90;91.50;;;;;;5113864;28;20432;-51
2023/10/15 06:32:52;;;;;;;;;;;6.90;91.70;;;;;;5114422;28;19976;-51
2023/10/15 06:35:21;;;;;;;;;;;6.90;91.70;;;;;;5114569;28;20485;-52
2023/10/15 06:37:48;;;;;;;;;;;6.90;91.60;;;;;;5115954;27;19972;-50
2023/10/15 06:40:16;;;;;;;;;;;6.90;92.00;;;;;;5109842;28;19912;-50
2023/10/15 06:42:46;;;;;;;;;;;7.00;92.00;;;;;;5076612;28;19918;-52
2023/10/15 06:45:19;;;;;;;;;;;7.00;91.70;;;;;;5088974;28;19915;-52
2023/10/15 06:47:49;;;;;;;;;;;7.00;91.80;;;;;;5113342;28;20319;-49
2023/10/15 06:50:16;;;;;;;;;;;7.00;91.70;;;;;;5109903;28;19908;-52
2023/10/15 06:52:42;;;;;;;;;;;7.10;92.00;;;;;;5093810;28;20210;-52
2023/10/15 06:55:16;;;;;;;;;;;7.20;91.90;;;;;;5097094;28;19911;-51
2023/10/15 06:57:43;;;;;;;;;;;7.30;92.00;;;;;;5097213;28;19915;-48
2023/10/15 07:00:10;;;;;;;;;;;7.20;91.50;;;;;;5101488;28;20379;-48
2023/10/15 07:02:39;;;;;;;;;;;7.30;91.40;;;;;;5130024;27;19915;-50
2023/10/15 07:05:05;;;;;;;;;;;7.30;91.30;;;;;;5107522;28;19908;-51
2023/10/15 07:07:33;;;;;;;;;;;7.30;91.00;;;;;;5109504;27;19939;-47
2023/10/15 07:10:05;;;;;;;;;;;7.40;91.50;;;;;;5114377;27;19911;-48
2023/10/15 07:12:32;;;;;;;;;;;7.30;90.60;;;;;;5093340;28;21228;-47
2023/10/15 07:14:57;;;;;;;;;;;7.20;89.90;;;;;;5113250;27;20355;-48
2023/10/15 07:17:24;;;;;;;;;;;7.30;90.00;;;;;;5115263;27;19912;-47
2023/10/15 07:19:50;;;;;;;;;;;7.20;89.60;;;;;;5112471;28;19935;-49
2023/10/15 07:22:15;;;;;;;;;;;7.30;89.60;;;;;;5095010;28;20271;-51
2023/10/15 07:24:40;;;;;;;;;;;7.30;89.40;;;;;;5103351;28;19912;-48
2023/10/15 07:27:06;;;;;;;;;;;7.40;89.60;;;;;;5112828;28;19915;-49
2023/10/15 07:29:33;;;;;;;;;;;7.40;89.50;;;;;;5092764;28;19996;-47
2023/10/15 07:32:03;;;;;;;;;;;7.40;89.20;;;;;;5108466;27;19912;-47
2023/10/15 07:34:30;;;;;;;;;;;7.30;89.20;;;;;;5101965;28;19916;-50
2023/10/15 07:36:56;;;;;;;;;;;7.30;88.90;;;;;;5100260;28;19930;-48
2023/10/15 07:39:22;;;;;;;;;;;7.30;89.00;;;;;;5091581;28;19912;-47
2023/10/15 07:41:51;;;;;;;;;;;7.20;89.00;;;;;;5092048;28;19916;-48
2023/10/15 07:44:20;;;;;;;;;;;7.10;89.10;;;;;;5110255;27;20558;-47
2023/10/15 07:46:46;;;;;;;;;;;7.10;89.40;;;;;;5127551;27;19923;-48
2023/10/15 07:49:14;;;;;;;;;;;7.10;89.80;;;;;;5111837;28;20256;-50
2023/10/15 07:51:40;;;;;;;;;;;7.10;89.60;;;;;;5111118;28;19920;-50
2023/10/15 07:54:08;;;;;;;;;;;7.30;90.30;;;;;;5095042;28;19926;-50
2023/10/15 07:56:35;;;;;;;;;;;7.40;90.20;;;;;;5111008;28;20272;-48
2023/10/15 07:59:07;;;;;;;;;;;7.50;90.50;;;;;;5111842;28;19931;-46
2023/10/15 08:01:36;;;;;;;;;;;7.70;90.40;;;;;;5094769;28;19938;-46
2023/10/15 08:04:05;;;;;;;;;;;7.80;90.20;;;;;;5114597;27;19908;-46
2023/10/15 08:06:33;;;;;;;;;;;7.90;90.20;;;;;;5113751;28;19907;-47
2023/10/15 08:08:59;;;;;;;;;;;8.10;89.80;;;;;;5085429;28;19916;-48
2023/10/15 08:11:26;;;;;;;;;;;8.60;90.10;;;;;;5111118;28;19915;-51
2023/10/15 08:13:54;;;;;;;;;;;8.80;89.40;;;;;;5092025;28;20364;-50
2023/10/15 08:16:20;;;;;;;;;;;8.80;87.60;;;;;;5089755;28;19922;-49
2023/10/15 08:18:47;;;;;;;;;;;8.70;87.40;;;;;;5112960;28;19965;-50
2023/10/15 08:21:17;;;;;;;;;;;8.70;87.70;;;;;;5092978;28;19950;-46
2023/10/15 08:23:42;;;;;;;;;;;8.70;87.50;;;;;;5101288;28;19915;-50
2023/10/15 08:26:12;;;;;;;;;;;8.50;87.10;;;;;;5115117;28;20354;-46
2023/10/15 08:28:38;;;;;;;;;;;8.40;87.00;;;;;;5094896;28;19903;-47
2023/10/15 08:31:04;;;;;;;;;;;8.40;87.40;;;;;;5120566;28;19907;-48
2023/10/15 08:33:31;;;;;;;;;;;8.60;85.10;;;;;;5092246;28;20272;-50
2023/10/15 08:35:56;;;;;;;;;;;9.20;81.20;;;;;;5107190;28;19916;-50
2023/10/15 08:38:25;;;;;;;;;;;9.60;80.20;;;;;;5115452;28;19934;-54
2023/10/15 08:40:53;;;;;;;;;;;9.80;78.60;;;;;;5112365;28;19965;-53
2023/10/15 08:43:32;;;;;;;;;;;9.90;78.00;;;;;;5116084;28;20002;-53
2023/10/15 08:45:58;;;;;;;;;;;9.90;77.60;;;;;;5100722;28;19908;-53
2023/10/15 08:48:25;;;;;;;;;;;9.60;78.10;;;;;;5102085;28;19962;-56
2023/10/15 08:50:56;;;;;;;;;;;9.60;79.00;;;;;;5089448;28;19919;-52
2023/10/15 08:53:25;;;;;;;;;;;9.40;78.70;;;;;;5095958;28;19927;-50
2023/10/15 08:55:57;;;;;;;;;;;9.30;79.20;;;;;;5109523;28;19908;-56
2023/10/15 08:58:25;;;;;;;;;;;9.50;80.10;;;;;;5110218;27;19916;-51
2023/10/15 09:00:52;;;;;;;;;;;9.90;80.20;;;;;;5091793;28;19930;-57
2023/10/15 09:03:19;;;;;;;;;;;10.20;78.70;;;;;;5087267;28;19916;-55
2023/10/15 09:05:45;;;;;;;;;;;10.40;77.70;;;;;;5112038;28;19908;-55
2023/10/15 09:08:13;;;;;;;;;;;10.40;77.40;;;;;;5114685;28;19911;-57
2023/10/15 09:10:42;;;;;;;;;;;10.40;78.00;;;;;;5099838;27;19923;-53
2023/10/15 09:13:21;;;;;;;;;;;10.60;79.40;;;;;;5121896;27;19927;-57
2023/10/15 09:15:50;;;;;;;;;;;10.60;79.00;;;;;;5105995;28;19911;-55
2023/10/15 09:18:20;;;;;;;;;;;10.70;77.40;;;;;;5073403;28;19943;-55
2023/10/15 09:20:58;;;;;;;;;;;11.00;77.70;;;;;;5114342;28;20002;-52
2023/10/15 09:23:30;;;;;;;;;;;11.30;76.70;;;;;;5113039;28;19916;-53
2023/10/15 09:25:57;;;;;;;;;;;11.50;76.90;;;;;;5078251;28;19967;-54
2023/10/15 09:28:27;;;;;;;;;;;11.40;76.40;;;;;;5095577;28;19961;-51
2023/10/15 09:31:01;;;;;;;;;;;11.40;75.80;;;;;;5078412;28;20435;-55
2023/10/15 09:33:41;;;;;;;;;;;11.20;77.20;;;;;;5094853;28;19912;-55
2023/10/15 09:36:08;;;;;;;;;;;11.30;77.40;;;;;;5093791;28;19923;-56
2023/10/15 09:38:35;;;;;;;;;;;11.50;77.10;;;;;;5106126;28;19908;-49
2023/10/15 09:41:01;;;;;;;;;;;11.60;77.20;;;;;;5101416;28;19914;-52
2023/10/15 09:43:31;;;;;;;;;;;11.70;76.10;;;;;;5094748;28;19904;-52
2023/10/15 09:46:05;;;;;;;;;;;11.80;77.10;;;;;;5095318;28;19932;-49
2023/10/15 09:48:33;;;;;;;;;;;11.70;76.00;;;;;;5089686;28;19916;-49
2023/10/15 09:51:02;;;;;;;;;;;11.70;76.90;;;;;;5095018;28;19943;-48
2023/10/15 09:53:43;;;;;;;;;;;11.90;76.20;;;;;;5096385;28;19916;-55
2023/10/15 09:56:12;;;;;;;;;;;12.10;75.60;;;;;;5092327;28;19923;-55
2023/10/15 09:58:38;;;;;;;;;;;12.20;74.70;;;;;;5097036;28;19907;-54
2023/10/15 10:01:28;;;;;;;;;;;12.00;72.60;;;;;;5115096;28;19946;-56
2023/10/15 10:04:16;;;;;;;;;;;11.80;74.00;;;;;;5112290;27;19918;-54
2023/10/15 10:07:03;;;;;;;;;;;11.70;74.40;;;;;;5111833;28;19911;-49
2023/10/15 10:09:51;;;;;;;;;;;11.60;74.40;;;;;;5112741;27;19926;-49
2023/10/15 10:12:45;;;;;;;;;;;11.20;75.60;;;;;;5113024;28;20313;-54
2023/10/15 10:15:30;;;;;;;;;;;10.80;72.70;;;;;;5112256;28;19908;-52
2023/10/15 10:17:56;;;;;;;;;;;10.40;72.00;;;;;;5112564;27;19911;-51
2023/10/15 10:20:31;;;;;;;;;;;10.10;74.50;;;;;;5112043;28;19911;-51
2023/10/15 10:23:03;;;;;;;;;;;9.80;76.90;;;;;;5091378;28;19998;-54
2023/10/15 10:25:35;;;;;;;;;;;9.60;77.00;;;;;;5092020;28;19922;-54
2023/10/15 10:28:07;;;;;;;;;;;9.50;78.70;;;;;;5115640;27;19978;-55
2023/10/15 10:30:36;;;;;;;;;;;9.60;77.70;;;;;;5106530;28;19915;-50
2023/10/15 10:33:04;;;;;;;;;;;9.70;78.00;;;;;;5104581;28;19996;-49
2023/10/15 10:35:50;;;;;;;;;;;9.70;77.70;;;;;;5111898;28;19922;-53
2023/10/15 10:38:20;;;;;;;;;;;9.90;75.50;;;;;;5106943;28;19923;-51
2023/10/15 10:40:51;;;;;;;;;;;10.10;74.70;;;;;;5093873;28;19908;-48
2023/10/15 10:43:35;;;;;;;;;;;10.70;74.60;;;;;;5093839;28;19912;-51
2023/10/15 10:46:02;;;;;;;;;;;11.20;71.60;;;;;;5110941;28;19915;-53
2023/10/15 10:48:33;;;;;;;;;;;11.50;71.20;;;;;;5099462;28;19919;-51
2023/10/15 10:51:12;;;;;;;;;;;11.80;69.20;;;;;;5073619;28;19931;-52
2023/10/15 10:53:42;;;;;;;;;;;12.10;70.20;;;;;;5091414;28;20245;-48
2023/10/15 10:56:09;;;;;;;;;;;11.90;62.80;;;;;;5089123;28;19990;-49
2023/10/15 10:58:37;;;;;;;;;;;11.80;63.80;;;;;;5092961;28;19961;-51
2023/10/15 11:01:06;;;;;;;;;;;11.70;63.40;;;;;;5092315;28;20047;-50
2023/10/15 11:03:34;;;;;;;;;;;11.90;64.30;;;;;;5093956;28;19954;-52
2023/10/15 11:06:00;;;;;;;;;;;12.30;64.60;;;;;;5093645;28;20368;-51
2023/10/15 11:08:26;;;;;;;;;;;12.50;66.00;;;;;;5092194;28;19965;-54
2023/10/15 11:11:02;;;;;;;;;;;12.40;66.10;;;;;;5091535;28;20280;-49
2023/10/15 11:13:30;;;;;;;;;;;12.40;65.10;;;;;;5092360;28;19920;-50
2023/10/15 11:15:56;;;;;;;;;;;12.40;64.60;;;;;;5093224;28;20027;-49
2023/10/15 11:18:26;;;;;;;;;;;12.40;59.60;;;;;;5075281;28;20006;-48
2023/10/15 11:20:52;;;;;;;;;;;12.10;60.40;;;;;;5092072;28;19915;-49
2023/10/15 11:23:18;;;;;;;;;;;11.90;60.90;;;;;;5074840;28;19920;-50
2023/10/15 11:25:44;;;;;;;;;;;11.90;63.30;;;;;;5073857;28;19927;-53
2023/10/15 11:28:11;;;;;;;;;;;11.90;65.00;;;;;;5087241;28;19916;-49
2023/10/15 11:30:41;;;;;;;;;;;12.00;67.30;;;;;;5074820;28;19916;-50
2023/10/15 11:33:16;;;;;;;;;;;12.00;67.30;;;;;;5089653;28;19916;-52
2023/10/15 11:35:43;;;;;;;;;;;12.00;67.40;;;;;;5089972;28;20368;-54
2023/10/15 11:38:10;;;;;;;;;;;12.00;67.70;;;;;;5092107;28;20002;-50
2023/10/15 11:40:38;;;;;;;;;;;12.00;67.90;;;;;;5073129;28;19920;-48
2023/10/15 11:43:08;;;;;;;;;;;12.00;68.00;;;;;;5090743;28;19943;-52
2023/10/15 11:45:37;;;;;;;;;;;12.10;67.20;;;;;;5092110;28;19912;-49
2023/10/15 11:48:11;;;;;;;;;;;12.10;68.20;;;;;;5092683;28;19915;-52
2023/10/15 11:50:40;;;;;;;;;;;11.80;66.90;;;;;;5091805;28;19908;-51
2023/10/15 11:53:18;;;;;;;;;;;11.50;66.40;;;;;;5092651;28;19941;-49
2023/10/15 11:55:48;;;;;;;;;;;11.20;67.10;;;;;;5112812;28;19914;-51
2023/10/15 11:58:16;;;;;;;;;;;10.90;67.40;;;;;;5106461;28;19968;-53
2023/10/15 12:00:42;;;;;;;;;;;10.80;67.60;;;;;;5113098;28;19950;-54
2023/10/15 12:03:09;;;;;;;;;;;10.50;65.90;;;;;;5075932;28;19922;-51
2023/10/15 12:05:35;;;;;;;;;;;10.40;66.40;;;;;;5092563;28;19908;-51
2023/10/15 12:08:03;;;;;;;;;;;10.20;66.50;;;;;;5093682;28;19922;-53
2023/10/15 12:10:33;;;;;;;;;;;10.40;68.40;;;;;;5111253;28;19924;-53
2023/10/15 12:13:00;;;;;;;;;;;10.70;68.40;;;;;;5112491;28;20056;-50
2023/10/15 12:15:30;;;;;;;;;;;10.90;69.60;;;;;;5112521;28;20688;-51
2023/10/15 12:17:57;;;;;;;;;;;11.00;68.00;;;;;;5101507;28;19916;-53
2023/10/15 12:20:26;;;;;;;;;;;11.20;67.10;;;;;;5110736;28;19949;-52
2023/10/15 12:22:55;;;;;;;;;;;11.40;65.80;;;;;;5116384;28;20256;-51
2023/10/15 12:25:21;;;;;;;;;;;11.40;65.80;;;;;;5103664;28;19946;-50
2023/10/15 12:27:46;;;;;;;;;;;11.40;67.40;;;;;;5097530;28;19958;-50
2023/10/15 12:30:32;;;;;;;;;;;11.30;70.00;;;;;;5117065;27;19912;-52
2023/10/15 12:32:59;;;;;;;;;;;11.00;69.30;;;;;;5110816;28;19955;-55
2023/10/15 12:35:27;;;;;;;;;;;10.80;69.70;;;;;;5112275;27;19914;-51
2023/10/15 12:38:05;;;;;;;;;;;10.60;68.70;;;;;;5096508;28;19996;-50
2023/10/15 12:40:38;;;;;;;;;;;10.40;69.20;;;;;;5103586;28;19918;-52
2023/10/15 12:43:15;;;;;;;;;;;10.40;67.50;;;;;;5098630;28;20364;-52
2023/10/15 12:45:53;;;;;;;;;;;10.40;67.50;;;;;;5091964;28;19908;-50
2023/10/15 12:48:21;;;;;;;;;;;10.60;68.00;;;;;;5095136;28;19908;-54
2023/10/15 12:50:47;;;;;;;;;;;10.80;68.90;;;;;;5095078;28;19999;-49
2023/10/15 12:53:13;;;;;;;;;;;11.10;69.40;;;;;;5089872;28;19919;-50
2023/10/15 12:55:42;;;;;;;;;;;11.40;67.90;;;;;;5115245;28;19930;-53
2023/10/15 12:58:10;;;;;;;;;;;11.70;66.90;;;;;;5112841;28;19912;-48
2023/10/15 13:00:43;;;;;;;;;;;11.90;68.40;;;;;;5105272;28;19912;-49
2023/10/15 13:03:12;;;;;;;;;;;11.80;69.40;;;;;;5116215;28;19915;-49
2023/10/15 13:05:39;;;;;;;;;;;11.50;74.80;;;;;;5111978;28;19908;-49
2023/10/15 13:08:06;;;;;;;;;;;11.00;75.80;;;;;;5095822;28;20356;-49
2023/10/15 13:10:34;;;;;;;;;;;10.80;75.50;;;;;;5092801;28;19908;-47
2023/10/15 13:13:01;;;;;;;;;;;10.70;75.70;;;;;;5115792;28;19907;-47
2023/10/15 13:15:28;;;;;;;;;;;10.70;76.30;;;;;;5107448;28;19912;-50
2023/10/15 13:17:57;;;;;;;;;;;10.70;74.70;;;;;;5107724;28;20233;-51
2023/10/15 13:20:24;;;;;;;;;;;10.80;73.20;;;;;;5115756;28;20248;-46
2023/10/15 13:22:49;;;;;;;;;;;10.80;74.30;;;;;;5094463;28;19923;-47
2023/10/15 13:25:17;;;;;;;;;;;10.80;73.30;;;;;;5112095;28;19908;-47
2023/10/15 13:27:47;;;;;;;;;;;10.70;73.30;;;;;;5097499;28;20394;-48
2023/10/15 13:30:15;;;;;;;;;;;10.70;72.60;;;;;;5095435;28;20000;-46
2023/10/15 13:32:43;;;;;;;;;;;10.80;72.60;;;;;;5093985;28;19938;-47
2023/10/15 13:35:11;;;;;;;;;;;10.90;72.60;;;;;;5108947;28;19907;-47
2023/10/15 13:37:39;;;;;;;;;;;11.00;72.70;;;;;;5105527;28;19942;-48
2023/10/15 13:40:09;;;;;;;;;;;11.20;73.50;;;;;;5095010;28;19938;-47
2023/10/15 13:42:42;;;;;;;;;;;11.00;73.50;;;;;;5113094;28;20028;-46
2023/10/15 13:45:07;;;;;;;;;;;10.90;73.50;;;;;;5097158;28;19912;-47
2023/10/15 13:47:38;;;;;;;;;;;11.00;74.20;;;;;;5105738;28;19912;-48
2023/10/15 13:50:06;;;;;;;;;;;10.90;73.50;;;;;;5081782;28;19908;-47
2023/10/15 13:52:34;;;;;;;;;;;10.80;73.90;;;;;;5090067;28;19924;-47
2023/10/15 13:55:01;;;;;;;;;;;10.80;73.40;;;;;;5100264;28;19912;-52
2023/10/15 13:57:26;;;;;;;;;;;10.90;73.00;;;;;;5096613;28;19915;-47
2023/10/15 13:59:53;;;;;;;;;;;10.90;73.50;;;;;;5108848;28;19915;-48
2023/10/15 14:02:20;;;;;;;;;;;11.10;73.50;;;;;;5097304;28;20245;-49
2023/10/15 14:04:47;;;;;;;;;;;11.20;73.10;;;;;;5082022;28;20388;-47
2023/10/15 14:07:15;;;;;;;;;;;11.10;70.30;;;;;;5101252;28;19907;-51
2023/10/15 14:09:40;;;;;;;;;;;11.10;67.60;;;;;;5104434;28;19908;-48
2023/10/15 14:12:07;;;;;;;;;;;11.10;67.20;;;;;;5100295;28;19926;-48
2023/10/15 14:14:37;;;;;;;;;;;11.10;67.20;;;;;;5102254;28;20015;-49
2023/10/15 14:17:08;;;;;;;;;;;11.10;67.50;;;;;;5098376;28;20404;-48
2023/10/15 14:19:38;;;;;;;;;;;11.10;67.00;;;;;;5102877;28;19918;-49
2023/10/15 14:22:05;;;;;;;;;;;11.10;66.70;;;;;;5105085;28;20410;-48
2023/10/15 14:24:31;;;;;;;;;;;11.00;67.30;;;;;;5101664;28;19911;-49
2023/10/15 14:26:58;;;;;;;;;;;10.90;67.90;;;;;;5092717;28;19919;-49
2023/10/15 14:29:26;;;;;;;;;;;10.80;69.40;;;;;;5104655;27;19908;-49
2023/10/15 14:31:52;;;;;;;;;;;10.60;70.30;;;;;;5103899;27;19954;-48
2023/10/15 14:34:33;;;;;;;;;;;10.50;71.50;;;;;;5096527;28;19943;-50
2023/10/15 14:37:06;;;;;;;;;;;10.60;72.30;;;;;;5099234;28;19908;-51
2023/10/15 14:39:36;;;;;;;;;;;10.70;72.40;;;;;;5100604;28;19918;-51
2023/10/15 14:42:04;;;;;;;;;;;10.70;72.60;;;;;;5105105;28;19949;-50
2023/10/15 14:44:34;;;;;;;;;;;10.60;72.70;;;;;;5104426;27;19907;-48
2023/10/15 14:47:10;;;;;;;;;;;10.60;72.70;;;;;;5100111;27;19916;-49
2023/10/15 14:49:46;;;;;;;;;;;10.50;73.50;;;;;;5102633;28;20241;-50
2023/10/15 14:52:12;;;;;;;;;;;10.50;72.80;;;;;;5107150;28;19923;-48
2023/10/15 14:54:40;;;;;;;;;;;10.60;73.90;;;;;;5097885;28;20300;-49
2023/10/15 14:57:10;;;;;;;;;;;10.60;73.40;;;;;;5095005;28;19911;-49
2023/10/15 14:59:36;;;;;;;;;;;10.70;73.40;;;;;;5069262;28;19951;-52
2023/10/15 15:02:04;;;;;;;;;;;10.80;74.10;;;;;;5079113;28;19912;-50